Time;durP1;ratioP1;P1;durP2;ratioP2;P2;SDS_P1;SDS_P2;PMS_P1;PMS_P2;Temp;Humidity;BMP_temperature;BMP_pressure;BME280_temperature;BME280_humidity;BME280_pressure;Samples;Min_cycle;Max_cycle;Signal;HPM_P1;HPM_P2
2021/08/24 00:00:19;;;;;;;3.00;1.20;;;;;;;13.10;100.00;96539.19;1027521;28;20089;-54
2021/08/24 00:00:50;;;;;;;6.40;1.65;;;;;;;13.06;100.00;96544.78;1032315;28;20034;-52
2021/08/24 00:01:20;;;;;;;2.55;1.30;;;;;;;13.00;100.00;96544.25;1031898;28;20029;-53
2021/08/24 00:01:51;;;;;;;3.42;1.50;;;;;;;13.03;100.00;96546.66;1028351;28;20105;-50
2021/08/24 00:02:22;;;;;;;2.67;1.33;;;;;;;13.06;100.00;96547.41;1031696;28;20026;-51
2021/08/24 00:02:53;;;;;;;2.20;1.30;;;;;;;13.07;100.00;96543.84;1031904;28;20057;-50
2021/08/24 00:03:24;;;;;;;3.10;1.42;;;;;;;13.03;100.00;96537.94;1035907;28;20030;-55
2021/08/24 00:03:54;;;;;;;3.00;1.27;;;;;;;13.02;100.00;96546.78;1039528;28;20045;-55
2021/08/24 00:04:25;;;;;;;4.57;1.50;;;;;;;13.00;100.00;96538.16;1039828;28;20060;-52
2021/08/24 00:04:55;;;;;;;2.72;1.48;;;;;;;13.02;100.00;96547.59;1027788;28;20037;-52
2021/08/24 00:05:28;;;;;;;4.65;1.85;;;;;;;13.03;100.00;96540.56;1027850;28;20106;-50
2021/08/24 00:05:59;;;;;;;2.60;1.30;;;;;;;13.06;100.00;96542.97;1031773;28;20524;-52
2021/08/24 00:06:30;;;;;;;3.53;1.65;;;;;;;13.06;100.00;96545.59;1031646;28;20030;-51
2021/08/24 00:07:00;;;;;;;3.13;1.70;;;;;;;13.08;100.00;96541.06;1028246;28;20050;-55
2021/08/24 00:07:31;;;;;;;2.30;1.30;;;;;;;13.08;100.00;96548.13;1027682;28;20576;-52
2021/08/24 00:08:04;;;;;;;2.75;1.30;;;;;;;12.98;100.00;96547.94;1027879;28;20023;-51
2021/08/24 00:08:35;;;;;;;2.25;1.35;;;;;;;12.95;100.00;96546.38;1028002;28;20050;-54
2021/08/24 00:09:06;;;;;;;3.05;1.33;;;;;;;12.99;100.00;96547.84;1032204;28;20438;-51
2021/08/24 00:09:36;;;;;;;3.55;1.60;;;;;;;13.02;100.00;96541.50;1035837;28;20014;-54
2021/08/24 00:10:08;;;;;;;3.53;1.55;;;;;;;13.02;100.00;96542.34;1031708;28;20033;-52
2021/08/24 00:10:41;;;;;;;2.40;1.20;;;;;;;13.04;100.00;96544.88;1027533;28;20026;-54
2021/08/24 00:11:12;;;;;;;4.80;1.52;;;;;;;13.08;100.00;96546.34;1027874;28;20099;-51
2021/08/24 00:11:43;;;;;;;2.90;1.45;;;;;;;13.09;100.00;96544.56;1029062;28;20101;-54
2021/08/24 00:12:14;;;;;;;3.35;1.60;;;;;;;13.05;100.00;96543.09;1032382;28;20443;-53
2021/08/24 00:12:44;;;;;;;2.40;1.30;;;;;;;13.05;100.00;96546.56;1031617;28;20113;-51
2021/08/24 00:13:16;;;;;;;2.53;1.45;;;;;;;13.03;100.00;96537.94;1031766;28;20019;-51
2021/08/24 00:13:47;;;;;;;3.38;1.40;;;;;;;13.09;100.00;96547.19;1031157;28;20022;-51
2021/08/24 00:14:17;;;;;;;2.83;1.30;;;;;;;13.09;100.00;96536.69;1031973;28;20018;-51
2021/08/24 00:14:48;;;;;;;3.13;1.48;;;;;;;13.09;100.00;96537.50;1035805;28;20462;-51
2021/08/24 00:15:18;;;;;;;2.38;1.27;;;;;;;13.02;100.00;96539.72;1039465;28;20024;-52
2021/08/24 00:15:49;;;;;;;2.25;1.27;;;;;;;13.03;100.00;96541.41;1035537;28;20022;-51
2021/08/24 00:16:20;;;;;;;2.50;1.45;;;;;;;13.08;100.00;96540.25;1031738;28;20114;-51
2021/08/24 00:16:51;;;;;;;3.00;1.40;;;;;;;13.06;100.00;96531.63;1027578;28;20054;-52
2021/08/24 00:17:22;;;;;;;2.38;1.40;;;;;;;13.03;100.00;96538.78;1027576;28;20169;-52
2021/08/24 00:17:53;;;;;;;2.00;1.23;;;;;;;13.07;100.00;96538.56;1031779;28;20026;-50
2021/08/24 00:18:24;;;;;;;3.20;1.30;;;;;;;13.11;100.00;96527.72;1031888;28;20093;-50
2021/08/24 00:18:54;;;;;;;2.40;1.30;;;;;;;13.08;100.00;96540.25;1031741;28;20457;-51
2021/08/24 00:19:25;;;;;;;2.10;1.20;;;;;;;13.08;100.00;96538.44;1031768;28;20472;-54
2021/08/24 00:19:56;;;;;;;2.30;1.30;;;;;;;13.14;100.00;96539.81;1031829;28;20049;-51
2021/08/24 00:20:30;;;;;;;2.58;1.48;;;;;;;13.13;100.00;96543.38;1027748;28;20096;-51
2021/08/24 00:21:01;;;;;;;2.50;1.27;;;;;;;13.13;100.00;96538.97;1028235;28;20027;-53
2021/08/24 00:21:32;;;;;;;2.95;1.23;;;;;;;13.10;100.00;96539.19;1031672;28;20030;-52
2021/08/24 00:22:03;;;;;;;5.38;1.70;;;;;;;13.06;100.00;96539.50;1023675;28;20437;-50
2021/08/24 00:22:36;;;;;;;3.83;1.40;;;;;;;13.01;100.00;96543.31;1019851;29;20032;-51
2021/08/24 00:23:09;;;;;;;2.22;1.20;;;;;;;13.03;100.00;96537.94;1027438;28;20564;-51
2021/08/24 00:23:40;;;;;;;2.70;1.30;;;;;;;13.01;100.00;96543.31;1023914;28;20062;-52
2021/08/24 00:24:11;;;;;;;2.42;1.20;;;;;;;12.98;100.00;96546.16;1028440;28;20440;-52
2021/08/24 00:24:41;;;;;;;2.85;1.25;;;;;;;12.96;100.00;96544.59;1027510;28;20508;-53
2021/08/24 00:25:12;;;;;;;3.80;1.30;;;;;;;12.93;100.00;96529.88;1019570;28;20055;-51
2021/08/24 00:25:43;;;;;;;5.03;1.20;;;;;;;12.99;100.00;96542.59;1023880;29;20615;-54
2021/08/24 00:26:14;;;;;;;3.30;1.30;;;;;;;13.01;100.00;96543.31;1019744;29;20035;-52
2021/08/24 00:26:44;;;;;;;2.70;1.60;;;;;;;13.00;100.00;96543.41;1028148;28;20026;-51
2021/08/24 00:27:15;;;;;;;2.70;1.25;;;;;;;13.00;100.00;96549.50;1031568;28;20439;-52
2021/08/24 00:27:45;;;;;;;2.40;1.17;;;;;;;12.99;100.00;96547.84;1027629;28;20110;-53
2021/08/24 00:28:16;;;;;;;2.35;1.35;;;;;;;13.01;100.00;96540.69;1027490;28;20373;-51
2021/08/24 00:28:47;;;;;;;3.55;1.10;;;;;;;13.07;100.00;96544.66;1027656;28;20026;-52
2021/08/24 00:29:17;;;;;;;3.30;1.58;;;;;;;13.05;100.00;96543.09;1027500;28;20023;-54
2021/08/24 00:29:48;;;;;;;2.17;1.20;;;;;;;13.04;100.00;96547.50;1023635;28;20481;-51
2021/08/24 00:30:18;;;;;;;4.47;1.50;;;;;;;13.01;100.00;96540.69;1019685;29;20024;-52
2021/08/24 00:30:49;;;;;;;3.90;1.33;;;;;;;13.02;100.00;96544.97;1023603;29;20111;-52
2021/08/24 00:31:20;;;;;;;2.10;1.10;;;;;;;13.07;100.00;96542.03;1027620;28;20097;-52
2021/08/24 00:31:50;;;;;;;2.70;1.20;;;;;;;13.08;100.00;96538.44;1031601;28;20120;-51
2021/08/24 00:32:21;;;;;;;3.05;1.30;;;;;;;13.13;100.00;96536.34;1031641;28;20022;-50
2021/08/24 00:32:51;;;;;;;2.65;1.60;;;;;;;13.15;100.00;96534.44;1027610;28;20085;-54
2021/08/24 00:33:23;;;;;;;2.47;1.35;;;;;;;13.16;100.00;96535.28;1023498;29;20019;-50
2021/08/24 00:33:54;;;;;;;3.25;1.65;;;;;;;13.18;100.00;96531.59;1023734;28;20096;-55
2021/08/24 00:34:25;;;;;;;2.58;1.48;;;;;;;13.17;100.00;96526.44;1023869;28;20564;-52
2021/08/24 00:34:56;;;;;;;2.97;1.42;;;;;;;13.14;100.00;96519.59;1023975;28;20770;-50
2021/08/24 00:35:26;;;;;;;2.15;1.25;;;;;;;13.14;100.00;96526.66;1023336;28;20015;-52
2021/08/24 00:35:57;;;;;;;3.15;1.27;;;;;;;13.10;100.00;96523.41;1023961;28;20501;-50
2021/08/24 00:36:27;;;;;;;3.53;1.35;;;;;;;13.13;100.00;96524.97;1028015;28;20448;-51
2021/08/24 00:36:58;;;;;;;2.25;1.38;;;;;;;13.10;100.00;96526.03;1035780;28;20469;-52
2021/08/24 00:37:29;;;;;;;2.67;1.33;;;;;;;13.11;100.00;96519.81;1039749;28;20021;-51
2021/08/24 00:38:00;;;;;;;3.03;1.27;;;;;;;13.10;100.00;96525.19;1039733;28;20071;-52
2021/08/24 00:38:30;;;;;;;3.08;1.50;;;;;;;13.08;100.00;96521.81;1037566;28;20039;-54
2021/08/24 00:39:01;;;;;;;3.97;1.60;;;;;;;13.05;100.00;96533.41;1030753;28;20049;-52
2021/08/24 00:39:32;;;;;;;2.25;1.40;;;;;;;13.01;100.00;96531.97;1019562;29;20023;-55
2021/08/24 00:40:04;;;;;;;4.10;1.40;;;;;;;13.02;100.00;96523.94;1019568;29;20024;-51
2021/08/24 00:40:34;;;;;;;2.88;1.30;;;;;;;13.00;100.00;96533.72;1020443;28;20102;-51
2021/08/24 00:41:05;;;;;;;2.88;1.42;;;;;;;12.96;100.00;96529.63;1027953;28;20412;-51
2021/08/24 00:41:36;;;;;;;2.50;1.40;;;;;;;12.97;100.00;96535.72;1031706;28;20059;-55
2021/08/24 00:42:12;;;;;;;4.07;1.38;;;;;;;12.97;100.00;96533.09;1027932;28;20179;-52
2021/08/24 00:42:44;;;;;;;2.22;1.17;;;;;;;13.03;100.00;96532.69;1023558;29;20019;-51
2021/08/24 00:43:14;;;;;;;2.60;1.55;;;;;;;13.06;100.00;96534.25;1023605;28;20119;-52
2021/08/24 00:43:46;;;;;;;2.50;1.40;;;;;;;13.06;100.00;96523.72;1022845;29;20049;-51
2021/08/24 00:44:16;;;;;;;2.78;1.75;;;;;;;13.09;100.00;96528.78;1027970;28;20492;-53
2021/08/24 00:44:48;;;;;;;1.92;1.10;;;;;;;13.10;100.00;96525.19;1023453;29;20024;-51
2021/08/24 00:45:18;;;;;;;4.32;1.48;;;;;;;13.07;100.00;96528.88;1023936;28;20023;-53
2021/08/24 00:45:52;;;;;;;2.35;1.13;;;;;;;13.09;100.00;96523.53;1027585;28;20497;-51
2021/08/24 00:46:41;;;;;;;3.83;1.30;;;;;;;13.07;100.00;96521.00;1022867;28;20560;-52
2021/08/24 00:47:13;;;;;;;2.85;1.33;;;;;;;13.00;100.00;96520.56;1022537;29;20019;-51
2021/08/24 00:47:45;;;;;;;3.45;1.40;;;;;;;13.01;100.00;96524.91;1019625;29;20019;-51
2021/08/24 00:48:16;;;;;;;3.47;1.58;;;;;;;12.98;100.00;96533.00;1021425;29;20031;-51
2021/08/24 00:48:47;;;;;;;2.92;1.60;;;;;;;12.97;100.00;96530.47;1019658;29;20029;-52
2021/08/24 00:49:19;;;;;;;2.05;1.27;;;;;;;12.96;100.00;96532.25;1020428;28;20027;-51
2021/08/24 00:49:50;;;;;;;3.00;1.50;;;;;;;12.95;100.00;96521.84;1028164;28;20041;-51
2021/08/24 00:50:29;;;;;;;3.90;1.30;;;;;;;13.00;100.00;96528.47;1023391;29;20027;-53
2021/08/24 00:51:00;;;;;;;3.40;1.25;;;;;;;12.97;100.00;96527.84;1019615;29;20120;-53
2021/08/24 00:51:33;;;;;;;2.20;1.10;;;;;;;12.96;100.00;96529.63;1019743;29;20607;-52
2021/08/24 00:52:09;;;;;;;4.35;1.45;;;;;;;12.92;100.00;96533.44;1022842;28;20026;-50
2021/08/24 00:52:39;;;;;;;7.70;1.60;;;;;;;12.91;100.00;96529.09;1028697;28;20401;-52
2021/08/24 00:53:13;;;;;;;2.28;1.15;;;;;;;12.94;100.00;96522.81;1019531;29;20031;-53
2021/08/24 00:53:43;;;;;;;2.33;1.20;;;;;;;12.90;100.00;96521.34;1020349;29;20055;-52
2021/08/24 00:54:15;;;;;;;4.05;1.50;;;;;;;12.87;100.00;96524.19;1023595;29;20082;-52
2021/08/24 00:54:45;;;;;;;2.53;1.23;;;;;;;12.86;100.00;96533.00;1021395;28;20012;-52
2021/08/24 00:55:17;;;;;;;2.22;1.27;;;;;;;12.84;100.00;96530.50;1027533;28;20456;-51
2021/08/24 00:55:47;;;;;;;3.95;1.52;;;;;;;12.81;100.00;96531.56;1027734;28;20095;-51
2021/08/24 00:56:18;;;;;;;2.70;1.38;;;;;;;12.86;100.00;96531.25;1023755;28;20025;-52
2021/08/24 00:56:52;;;;;;;2.50;1.30;;;;;;;12.82;100.00;96529.78;1027746;28;20033;-53
2021/08/24 00:57:23;;;;;;;2.20;1.20;;;;;;;12.82;100.00;96525.34;1027699;28;20034;-54
2021/08/24 00:57:58;;;;;;;2.70;1.40;;;;;;;12.83;100.00;96528.81;1028265;28;20170;-51
2021/08/24 00:58:28;;;;;;;4.82;1.50;;;;;;;12.83;100.00;96531.44;1028625;28;20022;-50
2021/08/24 00:58:59;;;;;;;2.30;1.30;;;;;;;12.83;100.00;96521.75;1027505;28;20047;-52
2021/08/24 00:59:30;;;;;;;2.67;1.30;;;;;;;12.82;100.00;96532.41;1019508;29;20138;-52
2021/08/24 01:00:00;;;;;;;3.78;1.20;;;;;;;12.81;100.00;96521.03;1015735;29;20028;-51
2021/08/24 01:00:33;;;;;;;2.85;1.40;;;;;;;12.81;100.00;96531.56;1019385;29;20023;-52
2021/08/24 01:01:04;;;;;;;2.47;1.13;;;;;;;12.83;100.00;96526.19;1024181;28;20071;-50
2021/08/24 01:01:35;;;;;;;2.20;1.33;;;;;;;12.85;100.00;96524.28;1027407;28;20531;-54
2021/08/24 01:02:07;;;;;;;3.17;1.40;;;;;;;12.85;100.00;96521.66;1023577;28;20027;-52
2021/08/24 01:02:38;;;;;;;3.05;1.30;;;;;;;12.84;100.00;96526.09;1027325;28;20027;-52
2021/08/24 01:03:11;;;;;;;3.63;1.30;;;;;;;12.77;100.00;96526.63;1027537;28;20609;-52
2021/08/24 01:03:45;;;;;;;3.58;1.20;;;;;;;12.77;100.00;96521.38;1023632;28;20022;-52
2021/08/24 01:04:17;;;;;;;3.28;1.15;;;;;;;12.78;100.00;96526.53;1027570;28;20033;-51
2021/08/24 01:04:49;;;;;;;2.40;1.20;;;;;;;12.76;100.00;96530.19;1020470;29;20016;-51
2021/08/24 01:05:19;;;;;;;1.90;1.00;;;;;;;12.76;100.00;96531.06;1019673;29;20023;-53
2021/08/24 01:05:52;;;;;;;3.83;1.38;;;;;;;12.82;100.00;96527.16;1023469;29;20578;-51
2021/08/24 01:06:40;;;;;;;1.95;1.20;;;;;;;12.84;100.00;96533.16;1019747;29;20108;-52
2021/08/24 01:07:36;;;;;;;3.22;1.40;;;;;;;12.79;100.00;96527.34;1023398;29;20118;-54
2021/08/24 01:08:09;;;;;;;2.45;1.30;;;;;;;12.76;100.00;96532.81;1027491;28;20023;-53
2021/08/24 01:09:09;;;;;;;3.88;1.48;;;;;;;12.74;100.00;96535.56;1027586;28;20026;-53
2021/08/24 01:10:01;;;;;;;4.05;1.20;;;;;;;12.75;100.00;96536.41;1027898;28;20027;-51
2021/08/24 01:10:37;;;;;;;1.83;1.20;;;;;;;12.68;100.00;96528.09;1027597;28;20070;-53
2021/08/24 01:11:24;;;;;;;3.10;1.35;;;;;;;12.65;100.00;96538.84;1029663;28;20489;-52
2021/08/24 01:12:05;;;;;;;2.35;1.30;;;;;;;12.66;100.00;96531.78;1027470;28;20031;-52
2021/08/24 01:13:00;;;;;;;2.67;1.33;;;;;;;12.68;100.00;96543.03;1023649;29;20023;-51
2021/08/24 01:13:39;;;;;;;5.13;1.25;;;;;;;12.71;100.00;96533.16;1019763;29;20406;-51
2021/08/24 01:14:31;;;;;;;2.50;1.25;;;;;;;12.67;100.00;96534.31;1025468;28;20023;-52
2021/08/24 01:15:35;;;;;;;2.78;1.30;;;;;;;12.64;100.00;96535.34;1031415;28;20026;-51
2021/08/24 01:16:17;;;;;;;2.58;1.40;;;;;;;12.66;100.00;96539.69;1027530;28;20163;-53
2021/08/24 01:16:58;;;;;;;2.78;1.50;;;;;;;12.60;100.00;96533.91;1029636;28;20022;-52
2021/08/24 01:17:35;;;;;;;2.40;1.50;;;;;;;12.58;100.00;96538.41;1031547;28;20484;-51
2021/08/24 01:18:34;;;;;;;4.05;1.63;;;;;;;12.54;100.00;96534.31;1035968;28;20108;-52
2021/08/24 01:19:35;;;;;;;2.90;1.30;;;;;;;12.51;100.00;96534.53;1031308;28;20459;-49
2021/08/24 01:20:15;;;;;;;2.85;1.40;;;;;;;12.50;100.00;96534.63;1023497;29;20054;-52
2021/08/24 01:21:11;;;;;;;2.85;1.40;;;;;;;12.42;100.00;96529.91;1020783;29;20058;-51
2021/08/24 01:21:55;;;;;;;4.70;1.52;;;;;;;12.40;100.00;96540.50;1027483;28;20023;-55
2021/08/24 01:22:51;;;;;;;3.75;1.40;;;;;;;12.34;100.00;96533.03;1027562;28;20029;-52
2021/08/24 01:23:40;;;;;;;2.35;1.42;;;;;;;12.33;100.00;96539.25;1028630;28;20481;-52
2021/08/24 01:24:18;;;;;;;3.47;1.48;;;;;;;12.34;100.00;96534.84;1029338;28;20125;-52
2021/08/24 01:24:56;;;;;;;3.80;1.48;;;;;;;12.33;100.00;96539.25;1027440;28;20037;-50
2021/08/24 01:25:34;;;;;;;2.70;1.40;;;;;;;12.33;100.00;96538.41;1023456;29;20022;-52
2021/08/24 01:26:27;;;;;;;2.50;1.50;;;;;;;12.30;100.00;96538.63;1022634;29;20030;-50
2021/08/24 01:27:10;;;;;;;3.05;1.60;;;;;;;12.26;100.00;96535.38;1023556;28;20063;-51
2021/08/24 01:27:48;;;;;;;3.03;1.60;;;;;;;12.27;100.00;96542.28;1028262;28;20548;-51
2021/08/24 01:28:41;;;;;;;3.20;1.50;;;;;;;12.24;100.00;96543.34;1020227;29;20031;-52
2021/08/24 01:29:48;;;;;;;2.85;1.50;;;;;;;12.22;100.00;96544.41;1020145;29;20046;-51
2021/08/24 01:30:28;;;;;;;2.70;1.58;;;;;;;12.23;100.00;96540.81;1027844;28;20023;-52
2021/08/24 01:31:37;;;;;;;2.88;1.55;;;;;;;12.23;100.00;96544.28;1030466;28;20034;-54
2021/08/24 01:32:20;;;;;;;3.97;1.55;;;;;;;12.21;100.00;96540.91;1032318;28;20038;-51
2021/08/24 01:33:11;;;;;;;3.47;1.60;;;;;;;12.20;100.00;96536.63;1031139;28;20069;-51
2021/08/24 01:33:41;;;;;;;;;;;;;;;12.23;100.00;96541.66;1028071;28;20026;-51
2021/08/24 01:34:45;;;;;;;4.07;1.60;;;;;;;12.17;100.00;96542.06;1028183;28;19976;-51
2021/08/24 01:35:18;;;;;;;2.60;1.48;;;;;;;12.14;100.00;96547.53;1028165;28;20033;-53
2021/08/24 01:36:10;;;;;;;3.95;1.73;;;;;;;12.18;100.00;96545.53;1024185;29;20405;-52
2021/08/24 01:36:46;;;;;;;3.70;1.63;;;;;;;12.18;100.00;96551.66;1024365;29;20034;-53
2021/08/24 01:37:29;;;;;;;4.78;1.75;;;;;;;12.19;100.00;96547.22;1024141;29;20608;-54
2021/08/24 01:38:22;;;;;;;3.08;1.60;;;;;;;12.21;100.00;96548.78;1028141;28;20023;-50
2021/08/24 01:39:06;;;;;;;4.13;1.67;;;;;;;12.21;100.00;96543.53;1024966;28;20043;-52
2021/08/24 01:39:41;;;;;;;8.35;1.77;;;;;;;12.23;100.00;96543.44;1020233;29;20020;-49
2021/08/24 01:40:18;;;;;;;3.05;1.52;;;;;;;12.19;100.00;96537.56;1016299;29;20486;-51
2021/08/24 01:40:57;;;;;;;4.38;1.80;;;;;;;12.23;100.00;96539.03;1020148;29;20062;-54
2021/08/24 01:41:47;;;;;;;3.20;1.75;;;;;;;12.25;100.00;96541.56;1022726;29;20026;-52
2021/08/24 01:42:18;;;;;;;;;;;;;;;12.30;100.00;96538.63;1024646;29;20019;-52
2021/08/24 01:42:48;;;;;;;3.67;1.55;;;;;;;12.30;100.00;96541.25;1028132;28;19910;-51
2021/08/24 01:43:59;;;;;;;3.70;1.80;;;;;;;12.26;100.00;96540.63;1028150;28;20473;-51
2021/08/24 01:44:29;;;;;;;3.03;1.52;;;;;;;12.24;100.00;96538.09;1029565;28;20073;-50
2021/08/24 01:45:06;;;;;;;4.72;1.80;;;;;;;12.24;100.00;96543.34;1024213;29;20031;-51
2021/08/24 01:45:40;;;;;;;3.28;1.58;;;;;;;12.26;100.00;96543.25;1024342;29;20559;-51
2021/08/24 01:46:24;;;;;;;2.80;1.63;;;;;;;12.26;100.00;96543.25;1024258;29;20031;-51
2021/08/24 01:47:00;;;;;;;3.33;1.60;;;;;;;12.26;100.00;96548.50;1024310;29;20412;-51
2021/08/24 01:47:50;;;;;;;2.67;1.58;;;;;;;12.25;100.00;96545.00;1023279;29;20026;-50
2021/08/24 01:48:22;;;;;;;;;;;;;;;12.28;100.00;96540.53;1028669;28;20042;-53
2021/08/24 01:48:54;;;;;;;3.80;1.77;;;;;;;12.28;100.00;96541.34;1024216;29;20033;-54
2021/08/24 01:49:47;;;;;;;5.75;1.63;;;;;;;12.29;100.00;96543.03;1023319;29;20019;-54
2021/08/24 01:50:17;;;;;;;2.88;1.65;;;;;;;12.31;100.00;96542.91;1027599;28;20188;-52
2021/08/24 01:50:55;;;;;;;3.53;1.70;;;;;;;12.30;100.00;96544.72;1031350;28;20030;-51
2021/08/24 01:51:28;;;;;;;3.40;2.00;;;;;;;12.34;100.00;96542.72;1028263;28;20019;-52
2021/08/24 01:52:01;;;;;;;5.10;1.70;;;;;;;12.29;100.00;96537.75;1024215;28;20109;-50
2021/08/24 01:52:34;;;;;;;4.30;2.15;;;;;;;12.27;100.00;96538.81;1025851;28;20015;-54
2021/08/24 01:53:19;;;;;;;4.40;1.65;;;;;;;12.34;100.00;96530.41;1024153;29;20015;-51
2021/08/24 01:54:00;;;;;;;3.08;1.77;;;;;;;12.33;100.00;96538.41;1027619;28;20382;-52
2021/08/24 01:54:35;;;;;;;3.30;1.77;;;;;;;12.35;100.00;96541.75;1028238;28;20054;-52
2021/08/24 01:55:10;;;;;;;3.20;1.95;;;;;;;12.32;100.00;96534.09;1024087;29;20035;-52
2021/08/24 01:55:46;;;;;;;3.50;1.63;;;;;;;12.29;100.00;96534.31;1026857;28;20026;-51
2021/08/24 01:56:19;;;;;;;3.40;1.85;;;;;;;12.30;100.00;96531.56;1026203;28;20038;-51
2021/08/24 01:56:50;;;;;;;2.92;1.48;;;;;;;12.30;100.00;96526.31;1024269;29;20485;-53
2021/08/24 01:57:26;;;;;;;5.45;1.58;;;;;;;12.30;100.00;96539.47;1016288;29;20028;-51
2021/08/24 01:58:00;;;;;;;3.83;1.80;;;;;;;12.30;100.00;96533.38;1020269;29;20079;-50
2021/08/24 01:58:34;;;;;;;2.53;1.50;;;;;;;12.31;100.00;96538.50;1025531;28;20489;-51
2021/08/24 01:59:10;;;;;;;3.45;1.83;;;;;;;12.35;100.00;96540.00;1028000;28;20019;-50
2021/08/24 01:59:46;;;;;;;3.17;1.70;;;;;;;12.38;100.00;96537.13;1029994;28;20038;-51
2021/08/24 02:00:16;;;;;;;4.50;1.60;;;;;;;12.43;100.00;96540.31;1030093;28;20082;-52
2021/08/24 02:00:49;;;;;;;3.20;1.58;;;;;;;12.41;100.00;96536.13;1024322;29;20560;-50
2021/08/24 02:01:23;;;;;;;8.98;2.10;;;;;;;12.44;100.00;96541.13;1020082;29;20138;-56
2021/08/24 02:02:01;;;;;;;4.90;2.28;;;;;;;12.47;100.00;96534.84;1020251;29;20183;-50
2021/08/24 02:02:35;;;;;;;4.28;1.55;;;;;;;12.49;100.00;96531.16;1022031;29;20575;-52
2021/08/24 02:03:08;;;;;;;2.83;1.58;;;;;;;12.44;100.00;96534.13;1024039;29;20361;-52
2021/08/24 02:03:42;;;;;;;4.22;1.70;;;;;;;12.45;100.00;96537.59;1023470;29;20023;-52
2021/08/24 02:04:18;;;;;;;3.47;1.77;;;;;;;12.44;100.00;96528.00;1028180;28;20019;-51
2021/08/24 02:04:52;;;;;;;3.47;1.85;;;;;;;12.38;100.00;96529.25;1029904;28;20497;-51
2021/08/24 02:05:27;;;;;;;3.47;1.70;;;;;;;12.37;100.00;96527.59;1031983;28;20033;-51
2021/08/24 02:06:01;;;;;;;3.97;1.85;;;;;;;12.38;100.00;96526.63;1030240;28;20121;-50
2021/08/24 02:06:36;;;;;;;4.68;1.90;;;;;;;12.31;100.00;96532.41;1028177;28;20023;-53
2021/08/24 02:07:08;;;;;;;3.80;1.67;;;;;;;12.26;100.00;96530.09;1028281;28;20412;-53
2021/08/24 02:07:39;;;;;;;4.85;2.15;;;;;;;12.23;100.00;96531.13;1029603;28;20392;-51
2021/08/24 02:08:14;;;;;;;4.00;1.95;;;;;;;12.17;100.00;96538.63;1028127;28;20050;-53
2021/08/24 02:08:47;;;;;;;3.33;1.77;;;;;;;12.17;100.00;96538.63;1024206;29;20023;-52
2021/08/24 02:09:22;;;;;;;4.75;1.98;;;;;;;12.25;100.00;96525.78;1016112;29;20064;-53
2021/08/24 02:09:54;;;;;;;5.43;2.28;;;;;;;12.25;100.00;96534.50;1021816;29;20031;-51
2021/08/24 02:10:25;;;;;;;3.15;1.80;;;;;;;12.21;100.00;96530.41;1028099;28;20022;-51
2021/08/24 02:11:00;;;;;;;3.58;1.98;;;;;;;12.18;100.00;96533.25;1024079;29;20110;-55
2021/08/24 02:11:31;;;;;;;3.45;1.95;;;;;;;12.19;100.00;96537.56;1020004;29;20506;-52
2021/08/24 02:12:02;;;;;;;3.30;1.60;;;;;;;12.19;100.00;96536.72;1024099;29;20023;-52
2021/08/24 02:12:34;;;;;;;3.72;1.80;;;;;;;12.19;100.00;96536.72;1020143;29;20024;-52
2021/08/24 02:13:05;;;;;;;4.05;1.70;;;;;;;12.20;100.00;96539.25;1020315;29;20028;-51
2021/08/24 02:13:40;;;;;;;4.18;2.15;;;;;;;12.18;100.00;96537.66;1015722;29;20055;-55
2021/08/24 02:14:13;;;;;;;3.88;1.92;;;;;;;12.23;100.00;96532.94;1019218;28;20020;-52
2021/08/24 02:14:44;;;;;;;3.83;1.90;;;;;;;12.27;100.00;96537.03;1024132;29;20524;-52
2021/08/24 02:15:15;;;;;;;3.10;1.63;;;;;;;12.26;100.00;96535.38;1020221;29;20024;-53
2021/08/24 02:15:51;;;;;;;6.43;2.20;;;;;;;12.28;100.00;96533.47;1020041;29;20024;-55
2021/08/24 02:16:24;;;;;;;3.47;1.98;;;;;;;12.28;100.00;96533.47;1024089;29;20023;-51
2021/08/24 02:16:56;;;;;;;3.35;1.88;;;;;;;12.29;100.00;96537.75;1025437;28;20417;-55
2021/08/24 02:17:27;;;;;;;2.85;1.50;;;;;;;12.29;100.00;96536.94;1032026;28;20030;-52
2021/08/24 02:17:58;;;;;;;3.97;2.05;;;;;;;12.27;100.00;96537.03;1028020;28;20019;-51
2021/08/24 02:18:31;;;;;;;4.35;1.80;;;;;;;12.29;100.00;96542.19;1024229;29;20489;-54
2021/08/24 02:19:07;;;;;;;4.40;1.98;;;;;;;12.29;100.00;96539.56;1024234;29;20015;-52
2021/08/24 02:19:44;;;;;;;3.83;1.85;;;;;;;12.29;100.00;96542.19;1025326;28;20561;-52
2021/08/24 02:20:25;;;;;;;4.22;2.38;;;;;;;12.31;100.00;96535.03;1030197;28;20022;-50
2021/08/24 02:21:06;;;;;;;4.43;1.88;;;;;;;12.29;100.00;96542.19;1027095;28;20115;-50
2021/08/24 02:21:39;;;;;;;5.30;2.20;;;;;;;12.26;100.00;96535.38;1028202;28;20023;-52
2021/08/24 02:22:13;;;;;;;3.10;1.83;;;;;;;12.30;100.00;96533.38;1023999;29;20031;-51
2021/08/24 02:22:44;;;;;;;3.88;1.85;;;;;;;12.34;100.00;96534.84;1026410;28;20084;-50
2021/08/24 02:23:20;;;;;;;3.33;1.67;;;;;;;12.32;100.00;96540.19;1020045;29;20025;-55
2021/08/24 02:23:51;;;;;;;4.45;1.90;;;;;;;12.29;100.00;96535.13;1019426;29;20168;-53
2021/08/24 02:24:27;;;;;;;4.22;2.05;;;;;;;12.34;100.00;96537.47;1016248;29;20109;-52
2021/08/24 02:25:02;;;;;;;3.63;1.90;;;;;;;12.31;100.00;96542.91;1020166;29;20087;-49
2021/08/24 02:25:37;;;;;;;4.15;2.10;;;;;;;12.33;100.00;96538.41;1020052;29;20482;-51
2021/08/24 02:26:08;;;;;;;3.90;2.00;;;;;;;12.36;100.00;96535.56;1024029;29;20023;-50
2021/08/24 02:26:38;;;;;;;3.75;2.05;;;;;;;12.31;100.00;96535.88;1012439;29;20035;-52
2021/08/24 02:27:11;;;;;;;3.80;1.70;;;;;;;12.29;100.00;96535.13;1016957;29;20032;-55
2021/08/24 02:27:46;;;;;;;3.50;2.03;;;;;;;12.32;100.00;96536.75;1020591;29;20027;-51
2021/08/24 02:28:22;;;;;;;3.00;1.70;;;;;;;12.31;100.00;96540.28;1026686;28;20420;-51
2021/08/24 02:28:55;;;;;;;4.32;2.17;;;;;;;12.33;100.00;96538.41;1028161;28;20054;-51
2021/08/24 02:29:26;;;;;;;5.20;2.22;;;;;;;12.35;100.00;96532.13;1028148;28;20094;-51
2021/08/24 02:29:56;;;;;;;4.22;2.28;;;;;;;12.29;100.00;96531.69;1024081;29;20478;-51
2021/08/24 02:30:28;;;;;;;3.40;1.90;;;;;;;12.28;100.00;96527.38;1024897;28;20023;-54
2021/08/24 02:31:21;;;;;;;3.50;2.05;;;;;;;12.34;100.00;96529.59;1028072;28;20685;-55
2021/08/24 02:32:02;;;;;;;4.38;2.60;;;;;;;12.32;100.00;96537.56;1027225;28;20034;-52
2021/08/24 02:32:34;;;;;;;4.15;2.20;;;;;;;12.34;100.00;96540.94;1024021;29;20011;-51
2021/08/24 02:33:05;;;;;;;7.65;2.42;;;;;;;12.38;100.00;96536.31;1016127;29;20537;-50
2021/08/24 02:34:06;;;;;;;4.15;2.47;;;;;;;12.31;100.00;96535.03;1015663;29;20056;-51
2021/08/24 02:34:57;;;;;;;4.13;2.28;;;;;;;12.27;100.00;96539.66;1020338;28;20020;-51
2021/08/24 02:35:33;;;;;;;4.45;2.30;;;;;;;12.26;100.00;96540.63;1021614;29;20469;-52
2021/08/24 02:36:03;;;;;;;6.05;2.78;;;;;;;12.18;100.00;96535.03;1016355;29;20016;-51
2021/08/24 02:36:34;;;;;;;4.18;2.30;;;;;;;12.17;100.00;96539.44;1023890;29;20039;-52
2021/08/24 02:37:12;;;;;;;4.20;2.60;;;;;;;12.12;100.00;96540.69;1028017;28;20162;-50
2021/08/24 02:37:48;;;;;;;4.00;2.45;;;;;;;12.09;100.00;96538.25;1023996;28;20028;-50
2021/08/24 02:38:23;;;;;;;4.88;2.63;;;;;;;12.13;100.00;96540.59;1028783;28;20373;-51
2021/08/24 02:38:58;;;;;;;4.63;2.47;;;;;;;12.08;100.00;96544.47;1031810;28;20014;-53
2021/08/24 02:39:35;;;;;;;5.68;2.80;;;;;;;12.06;100.00;96540.16;1023774;28;20007;-51
2021/08/24 02:40:13;;;;;;;5.10;2.78;;;;;;;12.12;100.00;96540.69;1020056;29;20043;-50
2021/08/24 02:40:49;;;;;;;5.05;2.85;;;;;;;12.16;100.00;96543.03;1020903;29;20111;-54
2021/08/24 02:41:22;;;;;;;4.85;2.92;;;;;;;12.16;100.00;96544.78;1022657;29;20019;-52
2021/08/24 02:42:03;;;;;;;3.75;2.58;;;;;;;12.12;100.00;96540.69;1026126;28;20019;-52
2021/08/24 02:42:56;;;;;;;3.88;2.55;;;;;;;12.05;100.00;96545.53;1030641;28;20054;-53
2021/08/24 02:43:45;;;;;;;4.70;2.88;;;;;;;12.06;100.00;96542.78;1031872;28;20017;-51
2021/08/24 02:44:18;;;;;;;5.55;2.80;;;;;;;12.04;100.00;96546.47;1032112;28;20118;-51
2021/08/24 02:44:54;;;;;;;3.88;2.25;;;;;;;12.04;100.00;96549.94;1029515;28;20030;-51
2021/08/24 02:45:29;;;;;;;5.65;3.10;;;;;;;12.01;100.00;96542.28;1032094;28;20175;-52
2021/08/24 02:46:06;;;;;;;4.38;2.78;;;;;;;11.93;100.00;96543.72;1028094;28;20481;-51